Terminal Aerodrome Forecast
Issued by NWS

Home | Current Version | Previous Version | Text Only | Print | Product List | Glossary On
Versions: 1 2 3 4 5 6 7 8 9 10 11 12 13 14 15 16 17 18 19 20 21 22
000
FTUS43 KAPX 031323 AAB
TAFTVC
TAF AMD
KTVC 031323Z 0313/0412 22005KT P6SM BKN002 BKN019 BKN090
     FM031310 24004KT P6SM SCT025 BKN090
     FM031400 31008KT P6SM SCT040 BKN090
     FM031900 29009KT P6SM BKN050
     FM040100 00000KT P6SM BKN060=

USA.gov is the U.S. government's official web portal to all federal, state and local government web resources and services.